PWSweather.com
Personal Weather Stations
Station Observations
KCOBOOMER
Belmont, Pueblo, CO 81001

BelmontPueblo, CO 81001

Lat: 38.2977486, Lon: -104.5754318

Elevation: 4795

Station Type: Davis Vantage Pro 2

http://www.puebloweather.net

Latest ConditionsUpdated 2:45:03 AM MDT Thursday, Apr 24, 2014
Currently Today's Max Today's Min Today's Average
Temperature 42.7°F5.9°C 44.5°F6.9°C 42.7°F5.9°C 43.3°F6.3°C
Dew Point 32.2°F0.1°C 34.9°F1.6°C 32.2°F0.1°C 33.1°F0.6°C
Winds Calm Calm 33.0 mph N53.1 kmh N - 14.1 mph 22.7 kmh
Wind Gusts 20.0 mph32.2 kmh 49.0 mph78.9 kmh - -
Humidity 66% 69% 66% 67%
Pressure 29.77 in1008.1 mb 29.78 in1008.5 mb 29.67 in1004.7 mb -
Hour Temp Dew Point Humidity Winds Wind Gusts Pressure Precip Precip Rate Daily Precip Total
02:45 AM 42.7°F5.9°C 32.2°F0.1°C 66% Calm Calm 20.0 mph32.2 kmh 29.77 in1008.1 mb 0.00 in0.0 mm 0.00 in/hr0.0 mm/hr 0.00 in0.0 mm
02:40 AM 42.9°F6.1°C 32.3°F0.2°C 66% Calm Calm 20.0 mph32.2 kmh 29.77 in1008.1 mb 0.00 in0.0 mm 0.00 in/hr0.0 mm/hr 0.00 in0.0 mm
02:35 AM 42.9°F6.1°C 32.3°F0.2°C 66% Calm Calm 20.0 mph32.2 kmh 29.78 in1008.5 mb 0.00 in0.0 mm 0.00 in/hr0.0 mm/hr 0.00 in0.0 mm
02:30 AM 43.1°F6.2°C 32.5°F0.3°C 66% 1.0 mph SW1.6 kmh SW 20.0 mph32.2 kmh 29.78 in1008.5 mb 0.00 in0.0 mm 0.00 in/hr0.0 mm/hr 0.00 in0.0 mm
02:25 AM 43.2°F6.2°C 32.6°F0.3°C 66% 7.0 mph SW11.3 kmh SW 20.0 mph32.2 kmh 29.77 in1008.1 mb 0.00 in0.0 mm 0.00 in/hr0.0 mm/hr 0.00 in0.0 mm
02:20 AM 43.3°F6.3°C 32.7°F0.4°C 66% 6.0 mph SW9.7 kmh SW 20.0 mph32.2 kmh 29.77 in1008.1 mb 0.00 in0.0 mm 0.00 in/hr0.0 mm/hr 0.00 in0.0 mm
02:15 AM 43.3°F6.3°C 32.7°F0.4°C 66% 6.0 mph SW9.7 kmh SW 20.0 mph32.2 kmh 29.77 in1008.1 mb 0.00 in0.0 mm 0.00 in/hr0.0 mm/hr 0.00 in0.0 mm
02:10 AM 43.2°F6.2°C 32.6°F0.3°C 66% 8.0 mph SW12.9 kmh SW 20.0 mph32.2 kmh 29.77 in1008.1 mb 0.00 in0.0 mm 0.00 in/hr0.0 mm/hr 0.00 in0.0 mm
02:05 AM 43.1°F6.2°C 32.5°F0.3°C 66% 14.0 mph W22.5 kmh W 19.0 mph30.6 kmh 29.76 in1007.8 mb 0.00 in0.0 mm 0.00 in/hr0.0 mm/hr 0.00 in0.0 mm
02:00 AM 43.0°F6.1°C 32.8°F0.4°C 67% 19.0 mph SW30.6 kmh SW 19.0 mph30.6 kmh 29.76 in1007.8 mb 0.00 in0.0 mm 0.00 in/hr0.0 mm/hr 0.00 in0.0 mm
01:55 AM 42.9°F6.1°C 32.7°F0.4°C 67% 6.0 mph W9.7 kmh W 44.0 mph70.8 kmh 29.76 in1007.8 mb 0.00 in0.0 mm 0.00 in/hr0.0 mm/hr 0.00 in0.0 mm
01:50 AM 42.9°F6.1°C 32.7°F0.4°C 67% 8.0 mph NW12.9 kmh NW 44.0 mph70.8 kmh 29.76 in1007.8 mb 0.00 in0.0 mm 0.00 in/hr0.0 mm/hr 0.00 in0.0 mm
01:45 AM 42.9°F6.1°C 32.3°F0.2°C 66% Calm Calm 44.0 mph70.8 kmh 29.75 in1007.5 mb 0.00 in0.0 mm 0.00 in/hr0.0 mm/hr 0.00 in0.0 mm
01:40 AM 42.9°F6.1°C 32.7°F0.4°C 67% 2.0 mph NNW3.2 kmh NNW 44.0 mph70.8 kmh 29.75 in1007.5 mb 0.00 in0.0 mm 0.00 in/hr0.0 mm/hr 0.00 in0.0 mm
01:35 AM 42.9°F6.1°C 32.7°F0.4°C 67% 14.0 mph N22.5 kmh N 44.0 mph70.8 kmh 29.75 in1007.5 mb 0.00 in0.0 mm 0.00 in/hr0.0 mm/hr 0.00 in0.0 mm
01:30 AM 42.9°F6.1°C 32.7°F0.4°C 67% 11.0 mph SSW17.7 kmh SSW 44.0 mph70.8 kmh 29.74 in1007.1 mb 0.00 in0.0 mm 0.00 in/hr0.0 mm/hr 0.00 in0.0 mm
01:25 AM 42.9°F6.1°C 32.7°F0.4°C 67% 22.0 mph NNW35.4 kmh NNW 44.0 mph70.8 kmh 29.73 in1006.8 mb 0.00 in0.0 mm 0.00 in/hr0.0 mm/hr 0.00 in0.0 mm
01:20 AM 42.9°F6.1°C 33.1°F0.6°C 68% 15.0 mph NW24.1 kmh NW 44.0 mph70.8 kmh 29.73 in1006.8 mb 0.00 in0.0 mm 0.00 in/hr0.0 mm/hr 0.00 in0.0 mm
01:15 AM 42.8°F6.0°C 33.0°F0.6°C 68% 21.0 mph NNW33.8 kmh NNW 44.0 mph70.8 kmh 29.73 in1006.8 mb 0.00 in0.0 mm 0.00 in/hr0.0 mm/hr 0.00 in0.0 mm
01:10 AM 42.9°F6.1°C 33.1°F0.6°C 68% 27.0 mph NW43.5 kmh NW 44.0 mph70.8 kmh 29.73 in1006.8 mb 0.00 in0.0 mm 0.00 in/hr0.0 mm/hr 0.00 in0.0 mm
01:05 AM 42.9°F6.1°C 33.1°F0.6°C 68% 18.0 mph NW29.0 kmh NW 44.0 mph70.8 kmh 29.72 in1006.4 mb 0.00 in0.0 mm 0.00 in/hr0.0 mm/hr 0.00 in0.0 mm
01:00 AM 43.0°F6.1°C 33.2°F0.7°C 68% 22.0 mph N35.4 kmh N 31.0 mph49.9 kmh 29.71 in1006.1 mb 0.00 in0.0 mm 0.00 in/hr0.0 mm/hr 0.00 in0.0 mm
12:55 AM 43.2°F6.2°C 33.4°F0.8°C 68% 15.0 mph NNW24.1 kmh NNW 49.0 mph78.9 kmh 29.71 in1006.1 mb 0.00 in0.0 mm 0.00 in/hr0.0 mm/hr 0.00 in0.0 mm
12:50 AM 43.3°F6.3°C 33.1°F0.6°C 67% 15.0 mph NW24.1 kmh NW 49.0 mph78.9 kmh 29.70 in1005.8 mb 0.00 in0.0 mm 0.00 in/hr0.0 mm/hr 0.00 in0.0 mm
12:45 AM 43.5°F6.4°C 33.3°F0.7°C 67% 22.0 mph NW35.4 kmh NW 49.0 mph78.9 kmh 29.70 in1005.8 mb 0.00 in0.0 mm 0.00 in/hr0.0 mm/hr 0.00 in0.0 mm
12:40 AM 43.6°F6.4°C 33.4°F0.8°C 67% 20.0 mph NNW32.2 kmh NNW 49.0 mph78.9 kmh 29.70 in1005.8 mb 0.00 in0.0 mm 0.00 in/hr0.0 mm/hr 0.00 in0.0 mm
12:35 AM 43.7°F6.5°C 33.5°F0.8°C 67% 30.0 mph NE48.3 kmh NE 49.0 mph78.9 kmh 29.70 in1005.8 mb 0.00 in0.0 mm 0.00 in/hr0.0 mm/hr 0.00 in0.0 mm
12:30 AM 43.8°F6.6°C 33.6°F0.9°C 67% 15.0 mph NW24.1 kmh NW 47.0 mph75.6 kmh 29.70 in1005.8 mb 0.00 in0.0 mm 0.00 in/hr0.0 mm/hr 0.00 in0.0 mm
12:25 AM 44.0°F6.7°C 34.1°F1.2°C 68% 20.0 mph NW32.2 kmh NW 47.0 mph75.6 kmh 29.69 in1005.4 mb 0.00 in0.0 mm 0.00 in/hr0.0 mm/hr 0.00 in0.0 mm
12:20 AM 44.1°F6.7°C 33.9°F1.1°C 67% 33.0 mph N53.1 kmh N 47.0 mph75.6 kmh 29.69 in1005.4 mb 0.00 in0.0 mm 0.00 in/hr0.0 mm/hr 0.00 in0.0 mm
12:15 AM 44.2°F6.8°C 34.0°F1.1°C 67% 26.0 mph NW41.8 kmh NW 45.0 mph72.4 kmh 29.69 in1005.4 mb 0.00 in0.0 mm 0.00 in/hr0.0 mm/hr 0.00 in0.0 mm
12:10 AM 44.3°F6.8°C 34.4°F1.3°C 68% 17.0 mph N27.4 kmh N 43.0 mph69.2 kmh 29.68 in1005.1 mb 0.00 in0.0 mm 0.00 in/hr0.0 mm/hr 0.00 in0.0 mm
12:05 AM 44.4°F6.9°C 34.9°F1.6°C 69% 17.0 mph NNW27.4 kmh NNW 36.0 mph57.9 kmh 29.68 in1005.1 mb 0.00 in0.0 mm 0.00 in/hr0.0 mm/hr 0.00 in0.0 mm
12:00 AM 44.5°F6.9°C 34.6°F1.4°C 68% 24.0 mph N38.6 kmh N 28.0 mph45.1 kmh 29.67 in1004.7 mb 0.00 in0.0 mm 0.00 in/hr0.0 mm/hr 0.00 in0.0 mm